Time;durP1;ratioP1;P1;durP2;ratioP2;P2;SDS_P1;SDS_P2;PMS_P1;PMS_P2;Temp;Humidity;BMP_temperature;BMP_pressure;BME280_temperature;BME280_humidity;BME280_pressure;Samples;Min_cycle;Max_cycle;Signal;HPM_P1;HPM_P2
2022/03/21 00:01:18;;;;;;;73.28;51.33;;;5.20;99.90;;;;;;4969332;28;20453;-67
2022/03/21 00:03:44;;;;;;;76.32;53.40;;;5.10;99.90;;;;;;4963600;28;20042;-66
2022/03/21 00:06:10;;;;;;;75.05;52.75;;;5.10;99.90;;;;;;4974122;28;20097;-67
2022/03/21 00:08:36;;;;;;;70.25;50.40;;;5.10;99.90;;;;;;4994433;28;20453;-66
2022/03/21 00:11:01;;;;;;;70.65;49.72;;;5.20;99.90;;;;;;4957883;28;20047;-66
2022/03/21 00:13:27;;;;;;;69.57;51.03;;;5.20;99.90;;;;;;4959296;28;20059;-66
2022/03/21 00:15:54;;;;;;;64.82;48.22;;;5.20;99.90;;;;;;4957176;28;20079;-67
2022/03/21 00:18:20;;;;;;;77.05;55.65;;;5.20;99.90;;;;;;4954224;28;20075;-66
2022/03/21 00:20:48;;;;;;;65.30;48.60;;;5.20;99.90;;;;;;4972807;28;20050;-67
2022/03/21 00:23:13;;;;;;;69.38;52.38;;;5.10;99.90;;;;;;4991665;28;20061;-67
2022/03/21 00:25:39;;;;;;;68.60;48.45;;;5.20;99.90;;;;;;4966726;28;21085;-67
2022/03/21 00:28:07;;;;;;;76.18;54.55;;;5.10;99.90;;;;;;4959694;28;20062;-66
2022/03/21 00:30:35;;;;;;;72.70;52.72;;;5.20;99.90;;;;;;4975310;28;20053;-66
2022/03/21 00:33:00;;;;;;;71.97;49.60;;;5.20;99.90;;;;;;4969670;28;20087;-66
2022/03/21 00:35:27;;;;;;;70.25;51.17;;;5.20;99.90;;;;;;4966600;28;20129;-66
2022/03/21 00:37:53;;;;;;;73.28;53.58;;;5.10;99.90;;;;;;4973617;28;20042;-66
2022/03/21 00:40:19;;;;;;;71.03;52.40;;;5.20;99.90;;;;;;4988001;28;20446;-66
2022/03/21 00:42:46;;;;;;;78.57;54.03;;;5.10;99.90;;;;;;4961564;28;20038;-66
2022/03/21 00:45:18;;;;;;;73.07;53.60;;;5.10;99.90;;;;;;4956932;28;20044;-66
2022/03/21 00:47:47;;;;;;;72.47;51.85;;;5.00;99.90;;;;;;4954558;28;20058;-67
2022/03/21 00:50:14;;;;;;;71.80;51.28;;;5.00;99.90;;;;;;4954981;28;20047;-66
2022/03/21 00:52:47;;;;;;;69.57;50.85;;;4.90;99.90;;;;;;4955921;28;20055;-66
2022/03/21 00:55:15;;;;;;;75.13;51.50;;;4.90;99.90;;;;;;4964419;28;20050;-66
2022/03/21 00:57:42;;;;;;;62.80;47.33;;;4.90;99.90;;;;;;4957706;28;20084;-66
2022/03/21 01:00:29;;;;;;;68.57;48.65;;;4.90;99.90;;;;;;4969686;28;20074;-66
2022/03/21 01:02:57;;;;;;;67.05;50.35;;;4.90;99.90;;;;;;4974705;28;20047;-66
2022/03/21 01:05:23;;;;;;;66.28;52.58;;;4.80;99.90;;;;;;4961072;28;20059;-66
2022/03/21 01:07:50;;;;;;;66.65;51.17;;;4.80;99.90;;;;;;4961456;28;20568;-67
2022/03/21 01:10:18;;;;;;;73.20;52.92;;;4.70;99.90;;;;;;4978319;28;20037;-67
2022/03/21 01:12:44;;;;;;;68.22;50.67;;;4.70;99.90;;;;;;4975002;28;20047;-67
2022/03/21 01:15:14;;;;;;;77.15;54.67;;;4.70;99.90;;;;;;4960105;28;20389;-67
2022/03/21 01:17:40;;;;;;;67.68;50.33;;;4.70;99.90;;;;;;4982620;28;20137;-67
2022/03/21 01:20:06;;;;;;;70.65;48.55;;;4.60;99.90;;;;;;4961989;28;20106;-67
2022/03/21 01:22:32;;;;;;;71.25;49.70;;;4.60;99.90;;;;;;4979945;28;20043;-67
2022/03/21 01:24:57;;;;;;;73.63;52.75;;;4.50;99.90;;;;;;4962688;28;20047;-67
2022/03/21 01:27:23;;;;;;;74.22;52.08;;;4.50;99.90;;;;;;4964939;28;20532;-68
2022/03/21 01:29:49;;;;;;;67.95;50.28;;;4.50;99.90;;;;;;4961837;28;20098;-67
2022/03/21 01:32:14;;;;;;;66.18;49.85;;;4.50;99.90;;;;;;4968519;28;20054;-67
2022/03/21 01:34:40;;;;;;;67.80;49.13;;;4.50;99.90;;;;;;4953033;28;20546;-67
2022/03/21 01:37:06;;;;;;;67.28;49.58;;;4.50;99.90;;;;;;4953643;28;20082;-67
2022/03/21 01:39:32;;;;;;;69.28;51.40;;;4.50;99.90;;;;;;4966692;28;20061;-67
2022/03/21 01:41:58;;;;;;;70.40;50.78;;;4.50;99.90;;;;;;4979958;28;20129;-67
2022/03/21 01:44:23;;;;;;;66.30;50.33;;;4.40;99.90;;;;;;4985057;28;20482;-67
2022/03/21 01:46:49;;;;;;;70.88;50.65;;;4.40;99.90;;;;;;4956131;28;20078;-67
2022/03/21 01:49:15;;;;;;;68.43;50.70;;;4.50;99.90;;;;;;4966967;28;20038;-68
2022/03/21 01:51:42;;;;;;;68.85;50.63;;;4.40;99.90;;;;;;4957633;28;20215;-67
2022/03/21 01:56:52;;;;;;;71.22;51.38;;;4.50;99.90;;;;;;4972525;28;20057;-67
2022/03/21 01:59:20;;;;;;;73.03;52.58;;;4.50;99.90;;;;;;4954955;28;20158;-67
2022/03/21 02:01:47;;;;;;;70.13;52.80;;;4.50;99.90;;;;;;4979397;28;20082;-67
2022/03/21 02:04:13;;;;;;;69.85;49.10;;;4.40;99.90;;;;;;4988029;28;20058;-67
2022/03/21 02:06:41;;;;;;;70.18;49.10;;;4.40;99.90;;;;;;4956596;28;20054;-67
2022/03/21 02:09:07;;;;;;;68.60;49.10;;;4.30;99.90;;;;;;4957953;28;20062;-67
2022/03/21 02:11:33;;;;;;;72.68;52.13;;;4.40;99.90;;;;;;4984655;28;20100;-67
2022/03/21 02:14:00;;;;;;;70.93;50.15;;;4.30;99.90;;;;;;4968402;28;20097;-67
2022/03/21 02:16:27;;;;;;;74.63;50.92;;;4.40;99.90;;;;;;4961030;28;20086;-67
2022/03/21 02:18:54;;;;;;;65.28;47.75;;;4.20;99.90;;;;;;4950594;28;20580;-67
2022/03/21 02:21:31;;;;;;;74.20;52.25;;;4.20;99.90;;;;;;4953328;28;20455;-68
2022/03/21 02:24:07;;;;;;;68.63;52.60;;;4.20;99.90;;;;;;4961773;28;20610;-67
2022/03/21 02:26:35;;;;;;;70.63;51.05;;;4.20;99.90;;;;;;4980815;28;20096;-67
2022/03/21 02:29:02;;;;;;;69.63;51.53;;;4.30;99.90;;;;;;4973911;28;20058;-68
2022/03/21 02:31:28;;;;;;;71.28;51.38;;;4.20;99.90;;;;;;4957501;28;20043;-67
2022/03/21 02:33:54;;;;;;;73.50;51.55;;;4.20;99.90;;;;;;4976101;28;20157;-67
2022/03/21 02:36:21;;;;;;;76.22;55.60;;;4.20;99.90;;;;;;4986935;28;20082;-67
2022/03/21 02:38:47;;;;;;;72.75;54.72;;;4.20;99.90;;;;;;4973277;28;20046;-67
2022/03/21 02:41:15;;;;;;;73.90;52.70;;;4.20;99.90;;;;;;4982065;28;20100;-67
2022/03/21 02:43:58;;;;;;;72.35;51.88;;;4.20;99.90;;;;;;4965480;28;20089;-67
2022/03/21 02:46:25;;;;;;;74.18;53.80;;;4.20;99.90;;;;;;4968946;28;20490;-68
2022/03/21 02:48:52;;;;;;;71.22;51.88;;;4.20;99.90;;;;;;5009274;28;20046;-67
2022/03/21 02:51:22;;;;;;;69.13;50.72;;;4.30;99.90;;;;;;4974282;28;20042;-67
2022/03/21 02:53:51;;;;;;;72.78;54.97;;;4.30;99.90;;;;;;4971479;28;20121;-67
2022/03/21 02:56:20;;;;;;;71.80;52.00;;;4.20;99.90;;;;;;4970163;28;20050;-67
2022/03/21 02:58:49;;;;;;;69.55;50.20;;;4.20;99.90;;;;;;4976919;28;20105;-67
2022/03/21 03:01:17;;;;;;;71.95;51.88;;;4.20;99.90;;;;;;4972285;28;20034;-67
2022/03/21 03:03:43;;;;;;;65.68;49.15;;;4.20;99.90;;;;;;4988536;28;20434;-67
2022/03/21 03:06:09;;;;;;;76.28;53.28;;;4.20;99.90;;;;;;4977170;28;20053;-67
2022/03/21 03:08:36;;;;;;;70.72;51.25;;;4.20;99.90;;;;;;4973186;28;20055;-67
2022/03/21 03:11:03;;;;;;;71.47;51.70;;;4.20;99.90;;;;;;4957557;28;20051;-67
2022/03/21 03:13:28;;;;;;;71.30;52.72;;;4.20;99.90;;;;;;4957993;28;20047;-67
2022/03/21 03:15:54;;;;;;;71.45;53.97;;;4.20;99.90;;;;;;4961502;28;20042;-67
2022/03/21 03:18:20;;;;;;;74.18;51.53;;;4.10;99.90;;;;;;4957999;28;20046;-68
2022/03/21 03:20:50;;;;;;;69.88;51.38;;;4.10;99.90;;;;;;4969097;28;20093;-68
2022/03/21 03:23:28;;;;;;;69.35;52.55;;;4.00;99.90;;;;;;4954640;28;20043;-68
2022/03/21 03:25:59;;;;;;;69.82;51.85;;;3.90;99.90;;;;;;4962328;28;20042;-67
2022/03/21 03:28:25;;;;;;;63.13;50.70;;;3.90;99.90;;;;;;4987944;28;20057;-67
2022/03/21 03:30:51;;;;;;;76.65;53.03;;;4.00;99.90;;;;;;4981427;28;20065;-67
2022/03/21 03:33:17;;;;;;;76.60;55.47;;;3.90;99.90;;;;;;4957575;28;20035;-67
2022/03/21 03:35:43;;;;;;;72.78;52.38;;;3.80;99.90;;;;;;4983996;28;20509;-67
2022/03/21 03:38:09;;;;;;;67.80;50.45;;;3.80;99.90;;;;;;4969965;28;20105;-67
2022/03/21 03:40:34;;;;;;;77.82;55.00;;;3.80;99.90;;;;;;4958296;28;20047;-67
2022/03/21 03:43:00;;;;;;;69.70;51.53;;;3.70;99.90;;;;;;4949372;28;20748;-67
2022/03/21 03:45:26;;;;;;;69.82;51.33;;;3.80;99.90;;;;;;4966462;28;20046;-67
2022/03/21 03:47:52;;;;;;;70.70;49.80;;;3.80;99.90;;;;;;4970707;28;20145;-67
2022/03/21 03:50:18;;;;;;;65.75;49.47;;;3.80;99.90;;;;;;4954156;28;20039;-67
2022/03/21 03:52:47;;;;;;;73.10;52.47;;;3.80;99.90;;;;;;4956005;28;20055;-67
2022/03/21 03:55:15;;;;;;;64.05;49.90;;;3.90;99.90;;;;;;4972433;28;20712;-67
2022/03/21 03:57:41;;;;;;;72.45;50.78;;;3.80;99.90;;;;;;4961047;28;20097;-67
2022/03/21 04:00:08;;;;;;;71.32;48.90;;;3.70;99.90;;;;;;4972906;28;20082;-67
2022/03/21 04:03:44;;;;;;;68.60;50.42;;;3.80;99.90;;;;;;4974842;28;20477;-67
2022/03/21 04:05:21;;;;;;;61.15;47.25;;;3.80;99.90;;;;;;4972858;28;20101;-67
2022/03/21 04:07:47;;;;;;;72.15;52.75;;;3.70;99.90;;;;;;4960440;28;20039;-67
2022/03/21 04:10:13;;;;;;;71.55;50.72;;;3.60;99.90;;;;;;4964456;28;20050;-67
2022/03/21 04:12:38;;;;;;;77.38;51.25;;;3.60;99.90;;;;;;4971916;28;20050;-67
2022/03/21 04:15:04;;;;;;;72.82;50.65;;;3.60;99.90;;;;;;4978477;28;20035;-67
2022/03/21 04:17:30;;;;;;;68.25;49.58;;;3.50;99.90;;;;;;4957849;28;20047;-67
2022/03/21 04:19:55;;;;;;;70.95;49.95;;;3.50;99.90;;;;;;4985230;28;20116;-67
2022/03/21 04:22:21;;;;;;;68.88;52.15;;;3.50;99.90;;;;;;4972700;28;20181;-68
2022/03/21 04:24:46;;;;;;;73.22;51.00;;;3.50;99.90;;;;;;4972295;28;20051;-67
2022/03/21 04:27:12;;;;;;;72.13;52.28;;;3.50;99.90;;;;;;4968451;28;20094;-67
2022/03/21 04:29:37;;;;;;;72.25;52.03;;;3.60;99.90;;;;;;4965920;28;20158;-67
2022/03/21 04:32:03;;;;;;;68.20;50.85;;;3.50;99.90;;;;;;4960211;28;20058;-67
2022/03/21 04:34:29;;;;;;;62.92;46.85;;;3.60;99.90;;;;;;4961966;28;20077;-67
2022/03/21 04:36:55;;;;;;;71.38;51.10;;;3.70;99.90;;;;;;4963735;28;20137;-67
2022/03/21 04:39:20;;;;;;;74.70;53.47;;;3.70;99.90;;;;;;4990008;28;20554;-67
2022/03/21 04:41:46;;;;;;;69.82;51.58;;;3.70;99.90;;;;;;4958707;28;20131;-67
2022/03/21 04:44:11;;;;;;;75.15;53.90;;;3.80;99.90;;;;;;4955639;28;20045;-67
2022/03/21 04:46:37;;;;;;;71.57;52.85;;;3.80;99.90;;;;;;4958975;28;20058;-67
2022/03/21 04:49:02;;;;;;;74.57;55.10;;;3.80;99.90;;;;;;4961828;28;20055;-67
2022/03/21 04:51:28;;;;;;;79.05;56.03;;;3.70;99.90;;;;;;4978520;28;20046;-67
2022/03/21 04:53:53;;;;;;;80.15;56.05;;;3.80;99.90;;;;;;4989179;28;20417;-67
2022/03/21 04:56:19;;;;;;;78.50;55.03;;;3.80;99.90;;;;;;4965561;28;20042;-67
2022/03/21 04:58:45;;;;;;;76.55;55.15;;;3.80;99.90;;;;;;4959172;28;20105;-67
2022/03/21 05:01:10;;;;;;;78.15;55.38;;;3.70;99.90;;;;;;4965449;28;20430;-67
2022/03/21 05:03:36;;;;;;;71.15;51.05;;;3.80;99.90;;;;;;4966668;28;20054;-67
2022/03/21 05:06:01;;;;;;;81.05;55.85;;;3.80;99.90;;;;;;4956913;28;20459;-67
2022/03/21 05:08:27;;;;;;;81.28;57.45;;;3.80;99.90;;;;;;4969560;28;20089;-68
2022/03/21 05:10:52;;;;;;;76.13;56.90;;;3.80;99.90;;;;;;4961856;28;20567;-67
2022/03/21 05:13:18;;;;;;;80.75;56.78;;;3.80;99.90;;;;;;4953261;28;20055;-67
2022/03/21 05:15:43;;;;;;;86.80;60.22;;;3.80;99.90;;;;;;4984916;28;20065;-67
2022/03/21 05:18:09;;;;;;;78.60;56.95;;;3.80;99.90;;;;;;4973699;28;20042;-67
2022/03/21 05:20:35;;;;;;;79.68;55.63;;;3.80;99.90;;;;;;4964967;28;20046;-67
2022/03/21 05:31:13;;;;;;;80.65;54.08;;;3.80;99.90;;;;;;4983753;28;20049;-67
2022/03/21 05:36:29;;;;;;;72.65;53.75;;;3.80;99.90;;;;;;4966911;28;20054;-67
2022/03/21 05:38:56;;;;;;;72.30;54.53;;;3.80;99.90;;;;;;4970110;28;20082;-67
2022/03/21 05:41:22;;;;;;;80.93;56.03;;;3.80;99.90;;;;;;4980112;28;20047;-67
2022/03/21 05:43:47;;;;;;;70.90;51.47;;;3.80;99.90;;;;;;4972114;28;20061;-67
2022/03/21 05:46:14;;;;;;;76.78;55.30;;;3.70;99.90;;;;;;4966864;28;20043;-68
2022/03/21 05:48:59;;;;;;;76.70;56.13;;;3.70;99.90;;;;;;4983585;28;20108;-67
2022/03/21 05:51:31;;;;;;;76.30;54.92;;;3.80;99.90;;;;;;4966276;28;20043;-67
2022/03/21 05:53:58;;;;;;;79.05;57.90;;;3.80;99.90;;;;;;4973401;28;20050;-67
2022/03/21 05:56:25;;;;;;;71.75;53.78;;;3.80;99.90;;;;;;4987381;28;20042;-67
2022/03/21 05:58:52;;;;;;;74.43;53.83;;;3.80;99.90;;;;;;4966846;28;20139;-67
2022/03/21 06:01:22;;;;;;;68.07;49.65;;;3.80;99.90;;;;;;4961992;28;20380;-67
2022/03/21 06:03:49;;;;;;;70.68;52.38;;;3.80;99.90;;;;;;4950597;29;20078;-67
2022/03/21 06:06:15;;;;;;;73.55;53.85;;;3.80;99.90;;;;;;4981776;28;20053;-67
2022/03/21 06:08:42;;;;;;;76.80;52.30;;;3.70;99.90;;;;;;4969535;28;20054;-67
2022/03/21 06:11:08;;;;;;;76.50;52.10;;;3.70;99.90;;;;;;4974086;28;20128;-67
2022/03/21 06:13:36;;;;;;;79.18;54.75;;;3.70;99.90;;;;;;4957519;28;20549;-67
2022/03/21 06:16:04;;;;;;;72.65;50.75;;;3.70;99.90;;;;;;4969374;28;20085;-67
2022/03/21 06:18:31;;;;;;;78.65;56.72;;;3.70;99.90;;;;;;4970573;28;20050;-67
2022/03/21 06:20:57;;;;;;;80.68;55.80;;;3.80;99.90;;;;;;4966640;28;20049;-67
2022/03/21 06:23:22;;;;;;;76.68;53.90;;;3.80;99.90;;;;;;4956837;28;20126;-67
2022/03/21 06:25:48;;;;;;;73.43;49.88;;;3.90;99.90;;;;;;4970692;28;20141;-67
2022/03/21 06:28:14;;;;;;;74.20;52.33;;;3.90;99.90;;;;;;5008135;28;20047;-67
2022/03/21 06:30:39;;;;;;;72.07;52.63;;;3.90;99.90;;;;;;4966175;28;20057;-67
2022/03/21 06:33:05;;;;;;;75.78;49.67;;;3.90;99.90;;;;;;4987463;28;20406;-67
2022/03/21 06:35:30;;;;;;;76.70;52.20;;;3.90;99.90;;;;;;4972877;28;20047;-67
2022/03/21 06:37:56;;;;;;;73.28;52.45;;;4.00;99.90;;;;;;4971358;28;20047;-67
2022/03/21 06:40:25;;;;;;;70.70;49.03;;;4.00;99.90;;;;;;4984282;28;20113;-67
2022/03/21 06:42:50;;;;;;;76.78;51.33;;;4.00;99.90;;;;;;4983127;28;20430;-67
2022/03/21 06:45:16;;;;;;;73.53;51.30;;;4.10;99.90;;;;;;4964722;28;20035;-67
2022/03/21 06:47:41;;;;;;;74.70;52.97;;;4.10;99.90;;;;;;4975354;28;20559;-67
2022/03/21 06:50:07;;;;;;;67.80;50.13;;;4.20;99.90;;;;;;4968546;28;20043;-67
2022/03/21 06:52:38;;;;;;;76.30;53.60;;;4.20;99.90;;;;;;4968092;28;20057;-67
2022/03/21 06:55:05;;;;;;;73.05;52.35;;;4.30;99.90;;;;;;4971092;28;20393;-67
2022/03/21 06:57:31;;;;;;;78.90;54.08;;;4.30;99.90;;;;;;4980337;28;20528;-67
2022/03/21 06:59:56;;;;;;;74.80;52.20;;;4.40;99.90;;;;;;4956520;28;20075;-67
2022/03/21 07:02:23;;;;;;;72.63;52.97;;;4.50;99.90;;;;;;4968791;28;20501;-67
2022/03/21 07:04:49;;;;;;;71.75;52.03;;;4.50;99.90;;;;;;4958901;28;20043;-67
2022/03/21 07:07:14;;;;;;;72.50;52.97;;;4.60;99.90;;;;;;4968248;28;20049;-67
2022/03/21 07:09:40;;;;;;;76.88;52.80;;;4.70;99.90;;;;;;4962489;28;20047;-67
2022/03/21 07:12:06;;;;;;;70.40;51.03;;;4.70;99.90;;;;;;4951126;28;20042;-67
2022/03/21 07:14:32;;;;;;;66.88;50.85;;;4.80;99.90;;;;;;4949792;28;20126;-67
2022/03/21 07:16:58;;;;;;;65.25;48.35;;;4.80;99.90;;;;;;4953235;28;20166;-67
2022/03/21 07:19:24;;;;;;;71.88;50.90;;;4.90;99.90;;;;;;4949969;28;20968;-67
2022/03/21 07:21:49;;;;;;;71.07;51.30;;;5.00;99.90;;;;;;4967566;28;20074;-67
2022/03/21 07:24:15;;;;;;;74.07;53.35;;;5.00;99.90;;;;;;4965052;28;20039;-67
2022/03/21 07:26:41;;;;;;;68.43;50.60;;;5.10;99.90;;;;;;4982675;28;20046;-67
2022/03/21 07:29:07;;;;;;;70.82;49.67;;;5.10;99.90;;;;;;4984046;28;20042;-68
2022/03/21 07:31:33;;;;;;;70.50;51.35;;;5.10;99.90;;;;;;4971459;28;20067;-67
2022/03/21 07:33:59;;;;;;;69.63;51.30;;;5.20;99.90;;;;;;4972295;28;20655;-67
2022/03/21 07:36:24;;;;;;;64.80;47.88;;;5.20;99.90;;;;;;4970176;28;20082;-67
2022/03/21 07:38:50;;;;;;;63.67;46.03;;;5.20;99.90;;;;;;4964399;28;20051;-67
2022/03/21 07:41:16;;;;;;;62.80;46.28;;;5.30;99.90;;;;;;4987940;28;20046;-67
2022/03/21 07:43:41;;;;;;;63.05;47.13;;;5.40;99.90;;;;;;5018751;28;20054;-67
2022/03/21 07:48:51;;;;;;;64.07;46.10;;;5.50;99.90;;;;;;4975440;28;20057;-67
2022/03/21 07:51:17;;;;;;;60.13;45.00;;;5.50;99.90;;;;;;4959335;28;20043;-67
2022/03/21 07:53:43;;;;;;;61.47;44.55;;;5.60;99.90;;;;;;4956496;28;20505;-68
2022/03/21 07:56:09;;;;;;;60.05;43.83;;;5.70;99.90;;;;;;4975986;28;20074;-67
2022/03/21 07:58:35;;;;;;;60.13;45.95;;;5.70;99.90;;;;;;4966389;28;20149;-68
2022/03/21 08:01:06;;;;;;;62.33;45.13;;;5.70;99.90;;;;;;4951663;28;20043;-68
2022/03/21 08:03:31;;;;;;;58.15;45.08;;;5.70;99.90;;;;;;4952489;28;20575;-67
2022/03/21 08:05:59;;;;;;;59.20;43.13;;;5.80;99.90;;;;;;4954811;28;20043;-67
2022/03/21 08:08:25;;;;;;;71.63;48.65;;;6.10;99.90;;;;;;4963770;28;20051;-66
2022/03/21 08:10:50;;;;;;;49.55;39.50;;;6.70;99.90;;;;;;4971075;28;20302;-66
2022/03/21 08:13:19;;;;;;;51.60;41.08;;;7.00;99.90;;;;;;4974386;28;20062;-66
2022/03/21 08:15:47;;;;;;;49.88;36.20;;;7.60;99.90;;;;;;4977314;28;20162;-66
2022/03/21 08:18:13;;;;;;;51.78;37.55;;;8.40;99.90;;;;;;4963668;28;20043;-66
2022/03/21 08:20:40;;;;;;;51.30;38.40;;;9.20;99.90;;;;;;4959044;28;20346;-66
2022/03/21 08:23:11;;;;;;;50.45;36.08;;;9.90;99.90;;;;;;4961613;28;20137;-66
2022/03/21 08:25:43;;;;;;;48.28;35.92;;;10.40;99.90;;;;;;4962348;28;20039;-66
2022/03/21 08:28:09;;;;;;;43.20;31.50;;;10.70;99.90;;;;;;5005647;28;20094;-66
2022/03/21 08:30:37;;;;;;;45.13;34.65;;;11.10;99.90;;;;;;4974466;28;20096;-66
2022/03/21 08:33:04;;;;;;;45.05;34.83;;;11.60;99.90;;;;;;4955290;28;20152;-66
2022/03/21 08:35:30;;;;;;;43.10;32.17;;;11.70;99.90;;;;;;4953612;28;20131;-66
2022/03/21 08:37:56;;;;;;;37.35;30.35;;;11.90;99.90;;;;;;4952915;28;20051;-66
2022/03/21 08:40:22;;;;;;;38.92;28.65;;;12.00;99.90;;;;;;4963346;28;20050;-66
2022/03/21 08:42:47;;;;;;;44.88;29.48;;;12.40;99.90;;;;;;4965148;28;20130;-66
2022/03/21 08:45:15;;;;;;;42.88;29.42;;;12.80;99.90;;;;;;4984633;28;20038;-66
2022/03/21 08:47:41;;;;;;;45.65;31.25;;;12.60;99.90;;;;;;4968797;28;20062;-66
2022/03/21 08:50:08;;;;;;;39.28;30.80;;;13.10;99.90;;;;;;4973782;28;20525;-66
2022/03/21 08:52:34;;;;;;;35.00;26.83;;;13.40;99.90;;;;;;4972662;28;20848;-65
2022/03/21 08:54:59;;;;;;;39.08;26.38;;;13.60;99.90;;;;;;4980082;28;20042;-66
2022/03/21 08:57:25;;;;;;;40.67;26.95;;;13.60;99.90;;;;;;4973152;28;20062;-66
2022/03/21 08:59:52;;;;;;;36.22;25.25;;;13.90;99.90;;;;;;4973182;28;20118;-66
2022/03/21 09:02:18;;;;;;;30.90;23.25;;;13.90;99.90;;;;;;4959699;28;20051;-66
2022/03/21 09:04:45;;;;;;;38.30;24.90;;;13.90;99.90;;;;;;4953381;28;20066;-66
2022/03/21 09:07:11;;;;;;;36.88;24.77;;;14.10;99.90;;;;;;4954513;28;20047;-66
2022/03/21 09:09:37;;;;;;;34.97;27.08;;;14.30;99.90;;;;;;4967393;28;20043;-66
2022/03/21 09:12:03;;;;;;;36.70;24.95;;;14.50;99.90;;;;;;4967151;28;20094;-66
2022/03/21 09:14:28;;;;;;;40.22;26.70;;;14.50;99.90;;;;;;4955332;28;20087;-66
2022/03/21 09:16:56;;;;;;;48.08;29.17;;;14.30;99.90;;;;;;4963932;28;20408;-66
2022/03/21 09:19:23;;;;;;;40.63;28.52;;;13.50;99.90;;;;;;4960199;28;20051;-66
2022/03/21 09:21:50;;;;;;;41.95;27.42;;;13.10;99.90;;;;;;4971394;28;20050;-66
2022/03/21 09:24:16;;;;;;;42.35;27.98;;;12.70;99.90;;;;;;4966081;28;20531;-66
2022/03/21 09:26:41;;;;;;;40.17;27.25;;;12.40;99.90;;;;;;4953106;28;20251;-66
2022/03/21 09:29:07;;;;;;;42.17;28.52;;;12.10;99.90;;;;;;4953944;28;20047;-66
2022/03/21 09:31:43;;;;;;;45.72;27.77;;;12.50;99.90;;;;;;4952018;28;20039;-66
2022/03/21 09:34:11;;;;;;;43.00;27.85;;;12.80;99.90;;;;;;4952783;28;20066;-66
2022/03/21 09:36:37;;;;;;;39.70;26.88;;;13.60;99.90;;;;;;4955739;28;20390;-66
2022/03/21 09:39:05;;;;;;;40.50;27.38;;;14.20;99.90;;;;;;4972998;28;20050;-66
2022/03/21 09:41:31;;;;;;;44.63;29.60;;;14.60;99.90;;;;;;4990944;28;20443;-66
2022/03/21 09:44:00;;;;;;;46.55;29.95;;;14.80;99.90;;;;;;4972151;28;20050;-66
2022/03/21 09:46:26;;;;;;;45.63;29.05;;;15.00;99.90;;;;;;4971379;28;20194;-66
2022/03/21 09:48:56;;;;;;;43.90;27.83;;;15.20;99.90;;;;;;4971907;28;20599;-66
2022/03/21 09:51:27;;;;;;;42.38;28.60;;;15.40;99.90;;;;;;4968486;28;20046;-66
2022/03/21 09:53:57;;;;;;;45.13;28.27;;;15.40;99.80;;;;;;4955110;28;20836;-66
2022/03/21 09:56:24;;;;;;;40.25;26.15;;;15.70;99.90;;;;;;4951060;28;20051;-66
2022/03/21 09:58:50;;;;;;;47.65;28.90;;;15.70;99.70;;;;;;4953482;28;20043;-66
2022/03/21 10:01:17;;;;;;;43.17;28.45;;;15.90;99.90;;;;;;4950710;28;20047;-66
2022/03/21 10:03:43;;;;;;;43.22;25.65;;;16.20;99.90;;;;;;4953018;28;20047;-66
2022/03/21 10:06:32;;;;;;;36.95;25.48;;;16.20;99.50;;;;;;4953290;28;20059;-66
2022/03/21 10:09:17;;;;;;;36.45;25.00;;;16.40;98.20;;;;;;4951936;28;20446;-66
2022/03/21 10:11:53;;;;;;;38.55;23.30;;;16.30;98.10;;;;;;4972047;28;20097;-66
2022/03/21 10:14:25;;;;;;;36.67;24.30;;;16.30;97.80;;;;;;4971937;28;20047;-66
2022/03/21 10:17:00;;;;;;;33.72;24.80;;;16.10;97.00;;;;;;4971578;28;20141;-66
2022/03/21 10:19:27;;;;;;;32.70;23.52;;;15.90;98.00;;;;;;4967719;28;20039;-66
2022/03/21 10:22:05;;;;;;;31.80;21.30;;;15.60;96.90;;;;;;4951373;28;20562;-66
2022/03/21 10:24:39;;;;;;;31.73;21.35;;;15.60;96.10;;;;;;4962917;28;20078;-66
2022/03/21 10:27:05;;;;;;;34.47;22.20;;;15.70;96.30;;;;;;4952024;28;20035;-66
2022/03/21 10:29:31;;;;;;;29.15;20.80;;;15.50;96.10;;;;;;4970321;28;20418;-66
2022/03/21 10:31:58;;;;;;;33.00;22.17;;;15.40;95.50;;;;;;4972434;28;20070;-66
2022/03/21 10:34:33;;;;;;;34.22;19.95;;;15.40;96.20;;;;;;4968943;28;20061;-66
2022/03/21 10:37:08;;;;;;;31.95;22.85;;;15.30;95.60;;;;;;4970073;28;20478;-66
2022/03/21 10:39:36;;;;;;;41.03;24.42;;;15.30;95.10;;;;;;4969046;28;20112;-66
2022/03/21 10:42:03;;;;;;;29.60;20.98;;;15.00;96.40;;;;;;4952614;28;20050;-66
2022/03/21 10:44:31;;;;;;;33.20;20.92;;;15.10;96.60;;;;;;4951832;28;20363;-66
2022/03/21 10:46:59;;;;;;;26.38;19.25;;;15.20;95.10;;;;;;4971178;28;20078;-66
2022/03/21 10:49:34;;;;;;;28.30;19.02;;;15.10;94.50;;;;;;4971182;28;20490;-66
2022/03/21 10:52:00;;;;;;;29.48;19.73;;;15.10;95.10;;;;;;4971174;28;20133;-66
2022/03/21 10:54:39;;;;;;;25.85;18.45;;;15.20;94.60;;;;;;4957317;28;20102;-66
2022/03/21 10:57:19;;;;;;;26.95;18.30;;;15.10;93.70;;;;;;4952069;28;20931;-66
2022/03/21 10:59:45;;;;;;;30.30;18.17;;;15.10;95.00;;;;;;4957865;28;20125;-66
2022/03/21 11:02:14;;;;;;;25.08;18.83;;;15.40;94.60;;;;;;4971700;28;20126;-66
2022/03/21 11:04:44;;;;;;;23.15;16.65;;;15.50;94.20;;;;;;4971113;28;20058;-66
2022/03/21 11:07:13;;;;;;;23.80;16.42;;;15.50;92.00;;;;;;4971653;28;20038;-66
2022/03/21 11:09:40;;;;;;;22.88;17.10;;;15.60;92.50;;;;;;4969121;28;20518;-66
2022/03/21 11:12:10;;;;;;;21.25;15.40;;;15.60;93.30;;;;;;4970930;28;20434;-66
2022/03/21 11:14:39;;;;;;;18.98;14.20;;;15.40;88.60;;;;;;4971200;28;20057;-66
2022/03/21 11:17:07;;;;;;;20.63;15.73;;;15.50;90.90;;;;;;4970087;28;20051;-66
2022/03/21 11:19:33;;;;;;;20.23;16.17;;;15.70;90.10;;;;;;4966573;28;20114;-66
2022/03/21 11:22:02;;;;;;;23.33;16.75;;;15.90;92.10;;;;;;4952315;28;20046;-66
2022/03/21 11:24:34;;;;;;;18.00;13.40;;;16.20;91.80;;;;;;4961302;28;20155;-66
2022/03/21 11:27:24;;;;;;;15.35;11.95;;;16.00;84.60;;;;;;4957805;28;20044;-66
2022/03/21 11:30:20;;;;;;;17.90;12.55;;;16.00;86.40;;;;;;4951331;28;20051;-66
2022/03/21 11:33:06;;;;;;;18.10;13.25;;;16.20;87.20;;;;;;4966941;28;20051;-66
2022/03/21 11:35:34;;;;;;;18.30;14.00;;;16.60;88.90;;;;;;4970778;28;20063;-66
2022/03/21 11:38:21;;;;;;;20.88;13.70;;;16.60;86.90;;;;;;4971566;28;20054;-66
2022/03/21 11:40:47;;;;;;;17.20;13.00;;;16.90;84.80;;;;;;4956879;28;20047;-66
2022/03/21 11:43:18;;;;;;;16.23;12.25;;;16.80;79.80;;;;;;4955577;28;20390;-66
2022/03/21 11:45:45;;;;;;;16.27;12.93;;;17.00;82.70;;;;;;4971284;28;20051;-66
2022/03/21 11:48:17;;;;;;;16.42;12.20;;;16.90;88.60;;;;;;4970293;28;20055;-66
2022/03/21 11:50:43;;;;;;;20.02;12.55;;;17.20;82.30;;;;;;4969080;28;20051;-66
2022/03/21 11:53:11;;;;;;;14.68;10.98;;;17.10;82.10;;;;;;4975994;28;20045;-66
2022/03/21 11:55:42;;;;;;;12.02;8.10;;;17.10;77.50;;;;;;4989617;28;20054;-66
2022/03/21 11:58:38;;;;;;;15.48;9.07;;;17.40;74.90;;;;;;4976563;28;20047;-66
2022/03/21 12:01:06;;;;;;;14.60;10.77;;;17.20;73.60;;;;;;4964272;28;20047;-66
2022/03/21 12:03:33;;;;;;;13.27;8.93;;;17.60;75.30;;;;;;4967127;28;20087;-66
2022/03/21 12:06:18;;;;;;;15.13;11.18;;;17.70;79.80;;;;;;4951566;28;20054;-66
2022/03/21 12:08:48;;;;;;;18.10;13.48;;;17.80;76.30;;;;;;4950973;28;20043;-66
2022/03/21 12:11:39;;;;;;;15.32;11.45;;;17.80;75.70;;;;;;4960606;28;20043;-66
2022/03/21 12:14:26;;;;;;;15.38;11.43;;;18.10;77.80;;;;;;4974682;28;20057;-66
2022/03/21 12:17:00;;;;;;;16.00;12.38;;;17.90;78.30;;;;;;4973988;28;20095;-66
2022/03/21 12:19:58;;;;;;;18.63;12.93;;;18.00;76.00;;;;;;4973691;28;20510;-66
2022/03/21 12:22:29;;;;;;;21.40;14.40;;;18.30;77.10;;;;;;4953508;28;20047;-66
2022/03/21 12:25:16;;;;;;;17.65;12.57;;;18.40;76.70;;;;;;4970394;28;20053;-66
2022/03/21 12:27:48;;;;;;;18.38;12.50;;;18.50;75.00;;;;;;4954492;28;20471;-66
2022/03/21 12:30:20;;;;;;;21.02;14.00;;;18.50;77.10;;;;;;4952727;28;20364;-66
2022/03/21 12:32:53;;;;;;;16.35;13.40;;;18.80;75.40;;;;;;4956983;28;20046;-66
2022/03/21 12:35:31;;;;;;;19.38;13.80;;;18.80;74.80;;;;;;4952770;28;20066;-66
2022/03/21 12:38:02;;;;;;;17.55;13.30;;;18.70;72.60;;;;;;4965581;28;20483;-66
2022/03/21 12:40:27;;;;;;;16.55;11.90;;;18.90;72.60;;;;;;4963415;28;20054;-66
2022/03/21 12:42:57;;;;;;;21.10;13.70;;;18.60;72.70;;;;;;4961096;28;20039;-66
2022/03/21 12:45:23;;;;;;;20.80;15.05;;;18.90;74.30;;;;;;4973361;28;20134;-66
2022/03/21 12:47:50;;;;;;;23.17;14.95;;;18.70;76.10;;;;;;4973840;28;20042;-66
2022/03/21 12:50:24;;;;;;;22.40;14.93;;;18.90;76.00;;;;;;4972987;28;20046;-66
2022/03/21 12:53:01;;;;;;;15.48;12.98;;;19.00;74.60;;;;;;4971629;28;20050;-66
2022/03/21 12:55:27;;;;;;;22.08;15.02;;;19.20;74.20;;;;;;4954366;28;20054;-66